createdAt,value
2023-04-03T00:00:41.584Z,95382.28
2023-04-03T00:03:09.420Z,95388.34
2023-04-03T00:05:38.335Z,95384.03
2023-04-03T00:08:08.854Z,95382.75
2023-04-03T00:10:36.839Z,95373.41
2023-04-03T00:13:05.427Z,95375.56
2023-04-03T00:15:33.064Z,95376.84
2023-04-03T00:18:01.063Z,95381.66
2023-04-03T00:20:29.481Z,95382.50
2023-04-03T00:22:58.508Z,95376.41
2023-04-03T00:25:26.133Z,95376.34
2023-04-03T00:27:53.831Z,95382.28
2023-04-03T00:30:23.077Z,95367.81
2023-04-03T00:32:51.613Z,95380.88
2023-04-03T00:35:19.703Z,95378.44
2023-04-03T00:37:47.432Z,95379.88
2023-04-03T00:40:17.350Z,95369.28
2023-04-03T00:42:46.056Z,95377.00
2023-04-03T00:45:27.996Z,95369.91
2023-04-03T00:47:56.820Z,95376.97
2023-04-03T00:50:24.880Z,95378.56
2023-04-03T00:52:52.928Z,95376.47
2023-04-03T00:55:22.300Z,95378.66
2023-04-03T00:57:50.175Z,95375.69
2023-04-03T01:00:21.348Z,95377.66
2023-04-03T01:02:48.969Z,95378.84
2023-04-03T01:05:17.544Z,95375.56
2023-04-03T01:07:46.052Z,95372.25
2023-04-03T01:10:15.453Z,95377.72
2023-04-03T01:12:47.435Z,95375.44
2023-04-03T01:15:16.879Z,95377.81
2023-04-03T01:17:46.175Z,95381.84
2023-04-03T01:20:43.330Z,95373.34
2023-04-03T01:23:20.291Z,95374.50
2023-04-03T01:25:49.477Z,95379.41
2023-04-03T01:28:22.436Z,95373.47
2023-04-03T01:30:52.693Z,95379.81
2023-04-03T01:33:21.807Z,95372.25
2023-04-03T01:35:49.498Z,95369.84
2023-04-03T01:38:17.325Z,95372.38
2023-04-03T01:40:45.247Z,95371.16
2023-04-03T01:43:14.126Z,95372.84
2023-04-03T01:45:41.741Z,95381.72
2023-04-03T01:48:09.732Z,95387.63
2023-04-03T01:50:38.937Z,95382.97
2023-04-03T01:53:06.805Z,95378.25
2023-04-03T01:55:34.494Z,95372.25
2023-04-03T01:58:02.120Z,95365.19
2023-04-03T02:00:29.811Z,95371.22
2023-04-03T02:02:57.800Z,95374.94
2023-04-03T02:05:25.484Z,95369.28
2023-04-03T02:07:54.455Z,95367.59
2023-04-03T02:10:22.057Z,95364.91
2023-04-03T02:12:49.655Z,95362.22
2023-04-03T02:15:17.330Z,95364.25
2023-04-03T02:17:45.386Z,95361.03
2023-04-03T02:20:13.424Z,95367.22
2023-04-03T02:22:41.046Z,95360.91
2023-04-03T02:25:11.184Z,95364.25
2023-04-03T02:27:38.808Z,95357.22
2023-04-03T02:30:07.833Z,95359.78
2023-04-03T02:32:35.504Z,95358.66
2023-04-03T02:35:03.223Z,95363.66
2023-04-03T02:37:31.002Z,95359.13
2023-04-03T02:39:58.595Z,95356.25
2023-04-03T02:42:27.551Z,95360.44
2023-04-03T02:44:55.233Z,95354.97
2023-04-03T02:47:22.940Z,95365.13
2023-04-03T02:49:50.595Z,95362.44
2023-04-03T02:52:18.170Z,95364.66
2023-04-03T02:54:45.774Z,95362.31
2023-04-03T02:57:14.112Z,95360.31
2023-04-03T02:59:43.075Z,95359.47
2023-04-03T03:02:10.872Z,95364.19
2023-04-03T03:04:38.728Z,95369.19
2023-04-03T03:07:06.317Z,95362.63
2023-04-03T03:09:34.095Z,95373.19
2023-04-03T03:12:01.732Z,95364.97
2023-04-03T03:14:29.433Z,95366.47
2023-04-03T03:16:58.471Z,95368.28
2023-04-03T03:19:26.134Z,95370.78
2023-04-03T03:21:53.781Z,95367.94
2023-04-03T03:24:21.403Z,95370.44
2023-04-03T03:26:49.015Z,95372.13
2023-04-03T03:29:16.821Z,95369.09
2023-04-03T03:31:44.503Z,95376.66
2023-04-03T03:34:13.900Z,95374.16
2023-04-03T03:36:41.832Z,95369.63
2023-04-03T03:39:09.517Z,95372.13
2023-04-03T03:41:37.171Z,95374.97
2023-04-03T03:44:04.952Z,95370.28
2023-04-03T03:46:32.618Z,95373.47
2023-04-03T03:49:00.468Z,95374.34
2023-04-03T03:51:29.468Z,95368.22
2023-04-03T03:53:57.136Z,95374.28
2023-04-03T03:56:24.779Z,95375.28
2023-04-03T03:58:52.434Z,95368.22
2023-04-03T04:01:20.170Z,95375.28
2023-04-03T04:03:47.952Z,95378.31
2023-04-03T04:06:15.705Z,95370.75
2023-04-03T04:08:44.760Z,95373.41
2023-04-03T04:11:12.410Z,95373.41
2023-04-03T04:13:40.058Z,95372.25
2023-04-03T04:16:08.688Z,95371.47
2023-04-03T04:18:36.386Z,95376.47
2023-04-03T04:21:04.207Z,95377.59
2023-04-03T04:23:31.804Z,95380.94
2023-04-03T04:26:00.772Z,95374.94
2023-04-03T04:28:28.463Z,95373.91
2023-04-03T04:30:56.144Z,95376.91
2023-04-03T04:33:23.822Z,95371.88
2023-04-03T04:35:52.658Z,95372.25
2023-04-03T04:38:20.415Z,95374.28
2023-04-03T04:40:49.203Z,95373.97
2023-04-03T04:43:18.355Z,95376.16
2023-04-03T04:45:46.103Z,95373.66
2023-04-03T04:48:13.746Z,95380.53
2023-04-03T04:50:41.382Z,95383.38
2023-04-03T04:53:12.196Z,95381.34
2023-04-03T04:55:39.804Z,95382.38
2023-04-03T04:58:07.363Z,95375.97
2023-04-03T05:00:36.649Z,95383.22
2023-04-03T05:03:04.333Z,95379.88
2023-04-03T05:05:32.073Z,95384.72
2023-04-03T05:07:59.657Z,95387.69
2023-04-03T05:10:27.336Z,95384.16
2023-04-03T05:12:54.960Z,95388.03
2023-04-03T05:15:22.584Z,95391.72
2023-04-03T05:17:52.054Z,95390.38
2023-04-03T05:20:20.002Z,95391.03
2023-04-03T05:22:47.582Z,95389.28
2023-04-03T05:25:15.210Z,95396.38
2023-04-03T05:27:42.810Z,95394.06
2023-04-03T05:30:11.433Z,95397.69
2023-04-03T05:32:39.209Z,95395.84
2023-04-03T05:35:09.290Z,95404.56
2023-04-03T05:37:37.514Z,95396.69
2023-04-03T05:40:05.997Z,95400.84
2023-04-03T05:42:34.027Z,95405.03
2023-04-03T05:45:01.667Z,95394.13
2023-04-03T05:47:29.375Z,95402.63
2023-04-03T05:49:57.214Z,95401.81
2023-04-03T05:52:29.202Z,95402.34
2023-04-03T05:54:57.176Z,95399.13
2023-04-03T05:57:24.925Z,95396.56
2023-04-03T05:59:52.577Z,95401.94
2023-04-03T06:02:22.078Z,95403.47
2023-04-03T06:04:50.113Z,95404.31
2023-04-03T06:07:21.925Z,95398.09
2023-04-03T06:09:52.117Z,95399.78
2023-04-03T06:12:20.183Z,95404.63
2023-04-03T06:14:47.924Z,95406.56
2023-04-03T06:17:16.257Z,95394.66
2023-04-03T06:19:44.223Z,95401.00
2023-04-03T06:22:12.572Z,95408.25
2023-04-03T06:24:40.372Z,95403.53
2023-04-03T06:27:09.381Z,95408.66
2023-04-03T06:29:38.074Z,95415.75
2023-04-03T06:32:06.080Z,95416.22
2023-04-03T06:34:33.695Z,95409.56
2023-04-03T06:37:01.336Z,95420.78
2023-04-03T06:39:28.998Z,95412.72
2023-04-03T06:41:56.608Z,95415.22
2023-04-03T06:44:25.623Z,95416.88
2023-04-03T06:46:54.954Z,95413.13
2023-04-03T06:49:22.607Z,95421.47
2023-04-03T06:51:50.581Z,95416.47
2023-04-03T06:54:18.246Z,95423.50
2023-04-03T06:56:45.914Z,95422.59
2023-04-03T06:59:14.644Z,95418.34
2023-04-03T07:01:43.774Z,95422.03
2023-04-03T07:04:11.464Z,95427.34
2023-04-03T07:06:39.045Z,95425.84
2023-04-03T07:09:07.014Z,95427.00
2023-04-03T07:11:34.586Z,95434.88
2023-04-03T07:14:02.203Z,95433.75
2023-04-03T07:16:31.856Z,95440.72
2023-04-03T07:19:01.306Z,95435.72
2023-04-03T07:21:28.946Z,95442.19
2023-04-03T07:23:56.813Z,95441.75
2023-04-03T07:26:24.503Z,95436.94
2023-04-03T07:28:52.180Z,95441.03
2023-04-03T07:31:20.094Z,95434.16
2023-04-03T07:33:47.799Z,95445.47
2023-04-03T07:36:20.437Z,95445.84
2023-04-03T07:38:48.187Z,95449.84
2023-04-03T07:41:18.472Z,95457.44
2023-04-03T07:43:46.177Z,95449.84
2023-04-03T07:46:13.876Z,95454.09
2023-04-03T07:48:41.527Z,95455.47
2023-04-03T07:51:09.234Z,95457.81
2023-04-03T07:53:38.317Z,95456.97
2023-04-03T07:56:06.410Z,95463.56
2023-04-03T07:58:34.138Z,95466.88
2023-04-03T08:01:01.816Z,95462.06
2023-04-03T08:03:29.611Z,95464.66
2023-04-03T08:06:04.470Z,95463.47
2023-04-03T08:08:33.736Z,95468.66
2023-04-03T08:11:03.523Z,95467.34
2023-04-03T08:13:32.038Z,95472.00
2023-04-03T08:16:00.176Z,95467.69
2023-04-03T08:18:28.666Z,95468.19
2023-04-03T08:20:56.425Z,95467.97
2023-04-03T08:23:24.060Z,95473.47
2023-04-03T08:25:51.964Z,95473.84
2023-04-03T08:28:20.986Z,95465.94
2023-04-03T08:30:48.673Z,95470.09
2023-04-03T08:33:16.583Z,95478.66
2023-04-03T08:35:44.717Z,95472.78
2023-04-03T08:38:12.619Z,95476.50
2023-04-03T08:40:40.565Z,95479.06
2023-04-03T08:43:24.274Z,95481.19
2023-04-03T08:45:54.763Z,95479.03
2023-04-03T08:48:24.260Z,95487.25
2023-04-03T08:50:54.081Z,95482.53
2023-04-03T08:53:24.040Z,95481.75
2023-04-03T08:55:52.684Z,95486.19
2023-04-03T08:58:23.487Z,95482.78
2023-04-03T09:00:53.643Z,95475.94
2023-04-03T09:03:22.542Z,95481.63
2023-04-03T09:05:54.445Z,95482.94
2023-04-03T09:08:27.209Z,95488.25
2023-04-03T09:11:06.576Z,95491.31
2023-04-03T09:13:39.803Z,95486.25
2023-04-03T09:16:17.375Z,95488.00
2023-04-03T09:18:47.790Z,95494.34
2023-04-03T09:21:19.444Z,95494.22
2023-04-03T09:23:48.676Z,95485.31
2023-04-03T09:26:20.199Z,95489.13
2023-04-03T09:28:50.898Z,95485.50
2023-04-03T09:31:22.939Z,95488.06
2023-04-03T09:33:52.426Z,95493.09
2023-04-03T09:36:41.940Z,95485.63
2023-04-03T09:39:13.984Z,95498.16
2023-04-03T09:41:41.559Z,95485.75
2023-04-03T09:44:23.295Z,95487.75
2023-04-03T09:46:51.044Z,95482.22
2023-04-03T09:49:19.891Z,95479.31
2023-04-03T09:51:48.026Z,95475.66
2023-04-03T09:54:38.508Z,95486.53
2023-04-03T09:57:11.085Z,95483.72
2023-04-03T09:59:45.073Z,95483.84
2023-04-03T10:02:29.640Z,95486.47
2023-04-03T10:05:08.974Z,95473.59
2023-04-03T10:07:39.122Z,95479.25
2023-04-03T10:10:20.873Z,95481.34
2023-04-03T10:12:49.062Z,95484.16
2023-04-03T10:15:19.680Z,95481.94
2023-04-03T10:17:56.282Z,95476.16
2023-04-03T10:20:36.407Z,95482.59
2023-04-03T10:23:17.664Z,95484.31
2023-04-03T10:25:53.724Z,95465.38
2023-04-03T10:28:25.578Z,95471.97
2023-04-03T10:30:58.846Z,95477.81
2023-04-03T10:33:37.423Z,95478.28
2023-04-03T10:36:16.208Z,95477.03
2023-04-03T10:38:50.819Z,95478.31
2023-04-03T10:41:24.303Z,95476.69
2023-04-03T10:44:00.031Z,95477.91
2023-04-03T10:46:32.823Z,95470.78
2023-04-03T10:49:09.104Z,95472.03
2023-04-03T10:51:39.724Z,95468.69
2023-04-03T10:54:11.083Z,95481.75
2023-04-03T10:56:41.868Z,95472.81
2023-04-03T10:59:18.381Z,95476.81
2023-04-03T11:01:50.371Z,95471.56
2023-04-03T11:04:20.447Z,95471.09
2023-04-03T11:06:51.047Z,95472.19
2023-04-03T11:09:23.682Z,95471.84
2023-04-03T11:11:53.992Z,95466.28
2023-04-03T11:14:27.832Z,95463.78
2023-04-03T11:17:05.858Z,95456.63
2023-04-03T11:19:37.437Z,95466.44
2023-04-03T11:22:10.787Z,95469.75
2023-04-03T11:24:40.942Z,95466.81
2023-04-03T11:27:15.400Z,95464.53
2023-04-03T11:29:43.259Z,95466.19
2023-04-03T11:32:23.591Z,95465.94
2023-04-03T11:34:52.958Z,95471.03
2023-04-03T11:37:27.152Z,95467.94
2023-04-03T11:39:58.365Z,95474.03
2023-04-03T11:42:31.757Z,95468.66
2023-04-03T11:45:25.596Z,95459.50
2023-04-03T11:47:56.017Z,95462.25
2023-04-03T11:50:41.613Z,95462.59
2023-04-03T11:53:35.737Z,95467.91
2023-04-03T11:56:31.795Z,95476.22
2023-04-03T11:59:21.724Z,95464.06
2023-04-03T12:01:50.474Z,95467.63
2023-04-03T12:04:20.926Z,95466.41
2023-04-03T12:06:55.830Z,95461.22
2023-04-03T12:10:04.848Z,95463.72
2023-04-03T12:12:36.183Z,95470.06
2023-04-03T12:15:26.247Z,95458.00
2023-04-03T12:17:53.908Z,95455.22
2023-04-03T12:20:58.207Z,95455.47
2023-04-03T12:23:31.370Z,95453.56
2023-04-03T12:26:22.726Z,95457.81
2023-04-03T12:28:51.327Z,95449.59
2023-04-03T12:31:19.645Z,95454.09
2023-04-03T12:34:02.588Z,95449.47
2023-04-03T12:36:38.719Z,95449.19
2023-04-03T12:39:38.776Z,95442.81
2023-04-03T12:42:18.472Z,95440.66
2023-04-03T12:44:52.317Z,95440.91
2023-04-03T12:47:30.902Z,95436.69
2023-04-03T12:49:59.440Z,95435.13
2023-04-03T12:52:35.531Z,95441.53
2023-04-03T12:55:05.884Z,95433.81
2023-04-03T12:57:34.253Z,95442.47
2023-04-03T13:00:01.944Z,95433.47
2023-04-03T13:02:31.416Z,95432.94
2023-04-03T13:05:00.782Z,95437.56
2023-04-03T13:07:34.304Z,95439.19
2023-04-03T13:10:06.368Z,95438.53
2023-04-03T13:12:34.149Z,95430.66
2023-04-03T13:15:05.224Z,95437.19
2023-04-03T13:17:33.560Z,95438.69
2023-04-03T13:20:12.891Z,95435.50
2023-04-03T13:22:47.885Z,95437.00
2023-04-03T13:25:17.789Z,95432.03
2023-04-03T13:27:45.960Z,95434.59
2023-04-03T13:30:28.236Z,95432.91
2023-04-03T13:32:57.577Z,95430.22
2023-04-03T13:35:35.258Z,95422.97
2023-04-03T13:38:07.504Z,95421.13
2023-04-03T13:40:47.096Z,95420.91
2023-04-03T13:43:20.858Z,95418.75
2023-04-03T13:46:06.036Z,95420.69
2023-04-03T13:48:39.167Z,95402.88
2023-04-03T13:51:14.337Z,95406.63
2023-04-03T13:53:46.764Z,95411.38
2023-04-03T13:56:22.825Z,95412.56
2023-04-03T13:59:00.430Z,95409.31
2023-04-03T14:01:36.584Z,95403.91
2023-04-03T14:04:14.755Z,95405.16
2023-04-03T14:06:42.418Z,95398.13
2023-04-03T14:09:11.487Z,95398.97
2023-04-03T14:11:39.222Z,95380.44
2023-04-03T14:14:13.985Z,95385.44
2023-04-03T14:16:44.042Z,95384.19
2023-04-03T14:19:20.203Z,95386.47
2023-04-03T14:21:47.929Z,95388.97
2023-04-03T14:24:17.520Z,95384.63
2023-04-03T14:26:46.136Z,95384.00
2023-04-03T14:29:14.942Z,95384.00
2023-04-03T14:31:43.725Z,95386.06
2023-04-03T14:34:12.211Z,95379.00
2023-04-03T14:36:40.485Z,95379.41
2023-04-03T14:39:09.678Z,95373.16
2023-04-03T14:41:38.668Z,95381.47
2023-04-03T14:44:06.664Z,95382.28
2023-04-03T14:46:54.452Z,95384.97
2023-04-03T14:49:27.060Z,95386.84
2023-04-03T14:51:54.693Z,95378.56
2023-04-03T14:54:26.835Z,95381.03
2023-04-03T14:56:56.369Z,95383.97
2023-04-03T14:59:24.667Z,95382.25
2023-04-03T15:01:52.362Z,95377.09
2023-04-03T15:04:21.796Z,95385.59
2023-04-03T15:06:50.338Z,95387.91
2023-04-03T15:09:22.462Z,95381.25
2023-04-03T15:11:50.284Z,95382.91
2023-04-03T15:14:29.796Z,95382.69
2023-04-03T15:17:07.847Z,95389.97
2023-04-03T15:19:38.721Z,95388.44
2023-04-03T15:22:06.386Z,95386.84
2023-04-03T15:24:34.210Z,95383.72
2023-04-03T15:27:02.429Z,95381.66
2023-04-03T15:29:31.685Z,95383.09
2023-04-03T15:31:59.428Z,95383.53
2023-04-03T15:34:27.046Z,95377.91
2023-04-03T15:36:54.687Z,95379.53
2023-04-03T15:39:23.814Z,95377.06
2023-04-03T15:41:52.822Z,95374.34
2023-04-03T15:44:20.540Z,95371.88
2023-04-03T15:46:52.227Z,95376.47
2023-04-03T15:49:20.643Z,95382.28
2023-04-03T15:51:48.317Z,95373.13
2023-04-03T15:54:16.049Z,95386.38
2023-04-03T15:56:43.608Z,95388.41
2023-04-03T15:59:11.624Z,95387.75
2023-04-03T16:01:39.930Z,95383.13
2023-04-03T16:04:09.919Z,95384.59
2023-04-03T16:06:38.004Z,95380.78
2023-04-03T16:09:06.026Z,95373.22
2023-04-03T16:11:33.670Z,95380.78
2023-04-03T16:14:01.370Z,95376.94
2023-04-03T16:16:29.361Z,95378.66
2023-04-03T16:18:57.424Z,95379.47
2023-04-03T16:21:26.775Z,95381.34
2023-04-03T16:23:54.513Z,95376.25
2023-04-03T16:26:22.215Z,95385.25
2023-04-03T16:28:49.873Z,95385.06
2023-04-03T16:31:17.790Z,95384.66
2023-04-03T16:33:45.494Z,95390.69
2023-04-03T16:36:13.143Z,95390.91
2023-04-03T16:38:42.235Z,95390.94
2023-04-03T16:41:09.835Z,95401.69
2023-04-03T16:43:37.889Z,95395.78
2023-04-03T16:46:06.023Z,95394.94
2023-04-03T16:48:33.898Z,95390.97
2023-04-03T16:51:01.495Z,95397.78
2023-04-03T16:53:29.301Z,95396.09
2023-04-03T16:55:59.255Z,95399.06
2023-04-03T16:58:27.022Z,95400.31
2023-04-03T17:00:56.055Z,95395.84
2023-04-03T17:03:26.747Z,95404.09
2023-04-03T17:05:54.541Z,95404.97
2023-04-03T17:08:22.170Z,95405.59
2023-04-03T17:10:51.612Z,95404.47
2023-04-03T17:13:20.764Z,95403.50
2023-04-03T17:15:48.568Z,95407.22
2023-04-03T17:18:16.250Z,95409.22
2023-04-03T17:20:43.834Z,95412.50
2023-04-03T17:23:11.465Z,95413.97
2023-04-03T17:25:39.168Z,95412.38
2023-04-03T17:28:06.904Z,95417.31
2023-04-03T17:30:35.856Z,95415.84
2023-04-03T17:33:03.504Z,95410.84
2023-04-03T17:35:31.611Z,95422.13
2023-04-03T17:37:59.223Z,95416.09
2023-04-03T17:40:27.047Z,95425.00
2023-04-03T17:42:54.710Z,95414.81
2023-04-03T17:45:22.462Z,95425.16
2023-04-03T17:47:52.640Z,95417.56
2023-04-03T17:50:20.635Z,95423.13
2023-04-03T17:52:48.342Z,95424.72
2023-04-03T17:55:17.744Z,95422.06
2023-04-03T17:57:45.520Z,95428.88
2023-04-03T18:00:15.590Z,95427.09
2023-04-03T18:02:43.464Z,95430.53
2023-04-03T18:05:12.874Z,95426.72
2023-04-03T18:07:41.373Z,95434.97
2023-04-03T18:10:10.020Z,95431.19
2023-04-03T18:12:37.787Z,95430.94
2023-04-03T18:15:07.037Z,95434.34
2023-04-03T18:17:34.715Z,95435.19
2023-04-03T18:20:02.404Z,95430.19
2023-04-03T18:22:31.440Z,95442.97
2023-04-03T18:24:59.522Z,95448.06
2023-04-03T18:27:28.159Z,95450.56
2023-04-03T18:29:59.860Z,95453.72
2023-04-03T18:32:27.534Z,95457.63
2023-04-03T18:34:55.514Z,95450.47
2023-04-03T18:37:24.180Z,95458.53
2023-04-03T18:39:53.344Z,95463.97
2023-04-03T18:42:22.767Z,95459.28
2023-04-03T18:44:53.562Z,95454.44
2023-04-03T18:47:24.713Z,95465.09
2023-04-03T18:49:52.420Z,95463.94
2023-04-03T18:52:20.522Z,95464.16
2023-04-03T18:54:48.375Z,95470.72
2023-04-03T18:57:17.383Z,95470.25
2023-04-03T18:59:45.108Z,95473.66
2023-04-03T19:02:13.623Z,95475.03
2023-04-03T19:04:41.522Z,95474.94
2023-04-03T19:07:10.306Z,95469.44
2023-04-03T19:09:38.671Z,95470.28
2023-04-03T19:12:06.676Z,95471.09
2023-04-03T19:14:35.797Z,95473.97
2023-04-03T19:17:04.262Z,95479.59
2023-04-03T19:19:32.003Z,95485.66
2023-04-03T19:21:59.669Z,95474.75
2023-04-03T19:24:27.481Z,95471.22
2023-04-03T19:26:55.451Z,95480.28
2023-04-03T19:29:23.179Z,95481.00
2023-04-03T19:31:52.522Z,95484.72
2023-04-03T19:34:20.382Z,95483.03
2023-04-03T19:36:49.396Z,95486.72
2023-04-03T19:39:17.161Z,95482.75
2023-04-03T19:41:46.188Z,95479.09
2023-04-03T19:44:13.980Z,95484.81
2023-04-03T19:46:41.767Z,95478.78
2023-04-03T19:49:20.581Z,95483.00
2023-04-03T19:51:48.253Z,95482.00
2023-04-03T19:54:15.872Z,95483.34
2023-04-03T19:56:43.528Z,95475.19
2023-04-03T19:59:11.367Z,95482.28
2023-04-03T20:01:39.291Z,95483.63
2023-04-03T20:04:07.105Z,95487.16
2023-04-03T20:06:36.770Z,95484.66
2023-04-03T20:09:04.541Z,95487.38
2023-04-03T20:11:32.206Z,95481.34
2023-04-03T20:13:59.838Z,95482.84
2023-04-03T20:16:28.124Z,95477.34
2023-04-03T20:18:56.620Z,95473.69
2023-04-03T20:21:28.669Z,95470.53
2023-04-03T20:23:57.629Z,95471.38
2023-04-03T20:26:27.278Z,95478.25
2023-04-03T20:28:57.009Z,95478.25
2023-04-03T20:31:26.095Z,95474.72
2023-04-03T20:33:53.883Z,95477.06
2023-04-03T20:36:23.572Z,95474.22
2023-04-03T20:38:52.694Z,95473.09
2023-04-03T20:41:21.806Z,95482.47
2023-04-03T20:43:49.465Z,95486.69
2023-04-03T20:46:19.652Z,95478.81
2023-04-03T20:48:48.158Z,95483.19
2023-04-03T20:51:18.266Z,95482.50
2023-04-03T20:53:46.200Z,95487.19
2023-04-03T20:56:14.236Z,95489.22
2023-04-03T20:58:46.598Z,95484.19
2023-04-03T21:01:16.458Z,95475.00
2023-04-03T21:03:46.231Z,95486.06
2023-04-03T21:06:51.803Z,95481.88
2023-04-03T21:09:56.824Z,95472.69
2023-04-03T21:13:01.971Z,95478.72
2023-04-03T21:15:47.665Z,95474.56
2023-04-03T21:18:28.752Z,95467.03
2023-04-03T21:20:56.386Z,95470.91
2023-04-03T21:23:24.636Z,95469.22
2023-04-03T21:25:52.243Z,95472.72
2023-04-03T21:28:19.930Z,95479.59
2023-04-03T21:30:47.542Z,95480.75
2023-04-03T21:33:16.638Z,95481.28
2023-04-03T21:35:44.320Z,95482.63
2023-04-03T21:38:11.967Z,95474.75
2023-04-03T21:40:39.899Z,95481.63
2023-04-03T21:43:07.656Z,95478.13
2023-04-03T21:45:35.283Z,95479.59
2023-04-03T21:48:05.656Z,95474.94
2023-04-03T21:50:37.026Z,95477.25
2023-04-03T21:53:04.821Z,95472.44
2023-04-03T21:55:32.426Z,95477.78
2023-04-03T21:58:00.210Z,95471.94
2023-04-03T22:00:28.157Z,95479.59
2023-04-03T22:03:07.718Z,95481.59
2023-04-03T22:05:39.290Z,95477.91
2023-04-03T22:08:07.605Z,95472.56
2023-04-03T22:10:35.576Z,95471.91
2023-04-03T22:13:03.190Z,95474.56
2023-04-03T22:15:31.108Z,95474.06
2023-04-03T22:17:58.781Z,95477.06
2023-04-03T22:20:26.471Z,95476.22
2023-04-03T22:22:55.454Z,95473.53
2023-04-03T22:25:23.170Z,95473.53
2023-04-03T22:27:50.880Z,95479.88
2023-04-03T22:30:18.509Z,95466.53
2023-04-03T22:32:46.194Z,95464.31
2023-04-03T22:35:14.103Z,95462.66
2023-04-03T22:37:41.702Z,95472.31
2023-04-03T22:40:11.875Z,95462.47
2023-04-03T22:42:39.486Z,95462.47
2023-04-03T22:45:08.073Z,95460.81
2023-04-03T22:47:35.707Z,95471.81
2023-04-03T22:50:03.454Z,95469.97
2023-04-03T22:52:31.040Z,95475.63
2023-04-03T22:55:06.303Z,95468.47
2023-04-03T22:57:48.310Z,95466.59
2023-04-03T23:00:16.854Z,95467.28
2023-04-03T23:02:44.428Z,95469.94
2023-04-03T23:05:12.379Z,95467.44
2023-04-03T23:07:40.049Z,95466.78
2023-04-03T23:10:08.379Z,95472.13
2023-04-03T23:12:38.267Z,95464.09
2023-04-03T23:15:08.405Z,95466.78
2023-04-03T23:17:37.346Z,95468.09
2023-04-03T23:20:06.500Z,95472.09
2023-04-03T23:22:34.183Z,95465.91
2023-04-03T23:25:01.862Z,95463.41
2023-04-03T23:27:29.423Z,95471.06
2023-04-03T23:29:57.115Z,95468.03
2023-04-03T23:32:26.063Z,95459.88
2023-04-03T23:34:53.823Z,95465.06
2023-04-03T23:37:21.419Z,95468.41
2023-04-03T23:39:49.000Z,95464.03
2023-04-03T23:42:17.410Z,95474.19
2023-04-03T23:44:44.990Z,95463.81
2023-04-03T23:47:12.576Z,95464.00
2023-04-03T23:49:41.623Z,95462.63
2023-04-03T23:52:09.242Z,95457.44
2023-04-03T23:54:36.878Z,95456.31
2023-04-03T23:57:04.462Z,95454.47
2023-04-03T23:59:32.233Z,95464.31
